M38 weather

Hazel Green Airport
Hazel Green, Alabama, United States

Public forecast

Using degrees Fahrenheit for public forecast. Weather courtesy of forecast.io.

Closest aviation weather report (METAR) to Hazel Green Airport

Closest report is Madison County Executive Airport-Tom Sharp Jr Field, 5.5 nm (10.2 km) SE. Retrieved 2020/02/18 06:35 UTC (0 seconds ago):

KMDQ 180635Z AUTO 15012G16KT 10SM OVC013 13/11 A3006 RMK A02 LTG DSNT SW T01340112

Closest aviation forecast (TAF) to Hazel Green Airport

Closest forecast is Huntsville International Carl T Jones Field, 17.9 nm (33.2 km) SSW. Retrieved 2020/02/18 06:22 UTC (0 seconds ago):

TAF KHSV 180520Z 1806/1906 16008KT P6SM VCTS BKN015CB TEMPO 1807/1811 4SM -TSRA BR BKN007CB FM181100 17006KT 4SM SHRA BR VCTS BKN008CB OVC015 FM181700 22015G20KT 4SM -TSRA BR OVC007CB FM182200 29015G20KT 4SM -RA BR OVC007 FM182300 35015G20KT 5SM -RA OVC015